sensor_id;sensor_type;location;lat;lon;timestamp;P1;durP1;ratioP1;P2;durP2;ratioP2
42006;SDS011;27696;42.704;23.304;2023-07-29T00:01:50;6.13;;;2.88;;
42006;SDS011;27696;42.704;23.304;2023-07-29T00:04:16;5.10;;;2.75;;
42006;SDS011;27696;42.704;23.304;2023-07-29T00:06:42;5.93;;;2.80;;
42006;SDS011;27696;42.704;23.304;2023-07-29T00:09:07;3.05;;;2.75;;
42006;SDS011;27696;42.704;23.304;2023-07-29T00:11:33;4.50;;;2.70;;
42006;SDS011;27696;42.704;23.304;2023-07-29T00:13:59;3.95;;;3.25;;
42006;SDS011;27696;42.704;23.304;2023-07-29T00:16:26;3.88;;;3.15;;
42006;SDS011;27696;42.704;23.304;2023-07-29T00:18:51;3.50;;;3.20;;
42006;SDS011;27696;42.704;23.304;2023-07-29T00:21:17;3.80;;;2.90;;
42006;SDS011;27696;42.704;23.304;2023-07-29T00:23:42;3.35;;;3.05;;
42006;SDS011;27696;42.704;23.304;2023-07-29T00:26:07;4.68;;;3.42;;
42006;SDS011;27696;42.704;23.304;2023-07-29T00:28:33;5.78;;;3.10;;
42006;SDS011;27696;42.704;23.304;2023-07-29T00:30:58;5.28;;;3.30;;
42006;SDS011;27696;42.704;23.304;2023-07-29T00:33:24;3.90;;;3.10;;
42006;SDS011;27696;42.704;23.304;2023-07-29T00:35:49;2.88;;;2.58;;
42006;SDS011;27696;42.704;23.304;2023-07-29T00:38:15;4.43;;;2.90;;
42006;SDS011;27696;42.704;23.304;2023-07-29T00:40:40;2.88;;;2.67;;
42006;SDS011;27696;42.704;23.304;2023-07-29T00:43:05;3.13;;;2.80;;
42006;SDS011;27696;42.704;23.304;2023-07-29T00:45:31;3.67;;;3.00;;
42006;SDS011;27696;42.704;23.304;2023-07-29T00:47:57;3.28;;;2.92;;
42006;SDS011;27696;42.704;23.304;2023-07-29T00:50:23;4.93;;;2.90;;
42006;SDS011;27696;42.704;23.304;2023-07-29T00:52:49;3.00;;;2.78;;
42006;SDS011;27696;42.704;23.304;2023-07-29T00:55:14;4.28;;;3.10;;
42006;SDS011;27696;42.704;23.304;2023-07-29T00:57:40;5.13;;;3.20;;
42006;SDS011;27696;42.704;23.304;2023-07-29T01:00:07;4.40;;;2.53;;
42006;SDS011;27696;42.704;23.304;2023-07-29T01:02:33;4.63;;;3.10;;
42006;SDS011;27696;42.704;23.304;2023-07-29T01:05:00;4.00;;;2.67;;
42006;SDS011;27696;42.704;23.304;2023-07-29T01:17:36;2.87;;;2.63;;
42006;SDS011;27696;42.704;23.304;2023-07-29T01:20:09;3.17;;;2.88;;
42006;SDS011;27696;42.704;23.304;2023-07-29T01:22:37;3.50;;;3.20;;
42006;SDS011;27696;42.704;23.304;2023-07-29T01:25:03;3.58;;;2.92;;
42006;SDS011;27696;42.704;23.304;2023-07-29T01:27:29;4.82;;;3.22;;
42006;SDS011;27696;42.704;23.304;2023-07-29T01:29:55;3.88;;;2.90;;
42006;SDS011;27696;42.704;23.304;2023-07-29T01:32:26;4.25;;;3.22;;
42006;SDS011;27696;42.704;23.304;2023-07-29T01:37:26;3.70;;;3.40;;
42006;SDS011;27696;42.704;23.304;2023-07-29T01:39:53;4.63;;;3.47;;
42006;SDS011;27696;42.704;23.304;2023-07-29T01:42:22;3.58;;;3.28;;
42006;SDS011;27696;42.704;23.304;2023-07-29T01:44:48;4.75;;;3.40;;
42006;SDS011;27696;42.704;23.304;2023-07-29T01:47:13;3.65;;;2.78;;
42006;SDS011;27696;42.704;23.304;2023-07-29T01:49:39;4.88;;;3.53;;
42006;SDS011;27696;42.704;23.304;2023-07-29T01:52:04;3.55;;;3.17;;
42006;SDS011;27696;42.704;23.304;2023-07-29T01:54:30;4.97;;;3.45;;
42006;SDS011;27696;42.704;23.304;2023-07-29T01:56:55;3.72;;;3.40;;
42006;SDS011;27696;42.704;23.304;2023-07-29T01:59:20;4.22;;;3.83;;
42006;SDS011;27696;42.704;23.304;2023-07-29T02:01:46;6.95;;;3.75;;
42006;SDS011;27696;42.704;23.304;2023-07-29T02:04:11;4.20;;;3.80;;
42006;SDS011;27696;42.704;23.304;2023-07-29T02:06:37;7.47;;;4.13;;
42006;SDS011;27696;42.704;23.304;2023-07-29T02:09:02;6.18;;;4.25;;
42006;SDS011;27696;42.704;23.304;2023-07-29T02:11:29;5.10;;;3.80;;
42006;SDS011;27696;42.704;23.304;2023-07-29T02:13:55;5.32;;;4.38;;
42006;SDS011;27696;42.704;23.304;2023-07-29T02:16:21;6.05;;;4.50;;
42006;SDS011;27696;42.704;23.304;2023-07-29T02:18:47;5.95;;;3.90;;
42006;SDS011;27696;42.704;23.304;2023-07-29T02:21:14;4.63;;;3.40;;
42006;SDS011;27696;42.704;23.304;2023-07-29T02:23:40;6.95;;;3.40;;
42006;SDS011;27696;42.704;23.304;2023-07-29T02:26:05;5.53;;;3.60;;
42006;SDS011;27696;42.704;23.304;2023-07-29T02:28:31;4.68;;;3.45;;
42006;SDS011;27696;42.704;23.304;2023-07-29T02:31:20;4.97;;;2.92;;
42006;SDS011;27696;42.704;23.304;2023-07-29T02:33:48;3.38;;;2.88;;
42006;SDS011;27696;42.704;23.304;2023-07-29T02:36:14;5.40;;;3.20;;
42006;SDS011;27696;42.704;23.304;2023-07-29T02:38:40;3.40;;;3.10;;
42006;SDS011;27696;42.704;23.304;2023-07-29T02:41:07;3.90;;;3.38;;
42006;SDS011;27696;42.704;23.304;2023-07-29T02:43:34;6.38;;;3.65;;
42006;SDS011;27696;42.704;23.304;2023-07-29T02:45:59;4.55;;;3.33;;
42006;SDS011;27696;42.704;23.304;2023-07-29T02:48:25;5.05;;;3.35;;
42006;SDS011;27696;42.704;23.304;2023-07-29T02:50:50;4.30;;;3.28;;
42006;SDS011;27696;42.704;23.304;2023-07-29T02:53:17;4.93;;;3.30;;
42006;SDS011;27696;42.704;23.304;2023-07-29T02:55:42;4.13;;;3.58;;
42006;SDS011;27696;42.704;23.304;2023-07-29T02:58:08;3.15;;;2.85;;
42006;SDS011;27696;42.704;23.304;2023-07-29T03:00:33;4.00;;;3.30;;
42006;SDS011;27696;42.704;23.304;2023-07-29T03:02:59;6.90;;;3.45;;
42006;SDS011;27696;42.704;23.304;2023-07-29T03:05:26;4.47;;;3.90;;
42006;SDS011;27696;42.704;23.304;2023-07-29T03:07:52;3.45;;;3.15;;
42006;SDS011;27696;42.704;23.304;2023-07-29T03:10:18;8.63;;;3.47;;
42006;SDS011;27696;42.704;23.304;2023-07-29T03:12:43;5.68;;;3.50;;
42006;SDS011;27696;42.704;23.304;2023-07-29T03:15:08;3.97;;;3.63;;
42006;SDS011;27696;42.704;23.304;2023-07-29T03:17:34;3.65;;;3.22;;
42006;SDS011;27696;42.704;23.304;2023-07-29T03:19:59;3.88;;;3.13;;
42006;SDS011;27696;42.704;23.304;2023-07-29T03:22:25;5.03;;;3.65;;
42006;SDS011;27696;42.704;23.304;2023-07-29T03:24:50;4.43;;;3.58;;
42006;SDS011;27696;42.704;23.304;2023-07-29T03:27:16;5.00;;;3.60;;
42006;SDS011;27696;42.704;23.304;2023-07-29T03:29:41;4.43;;;3.92;;
42006;SDS011;27696;42.704;23.304;2023-07-29T03:32:07;4.45;;;3.88;;
42006;SDS011;27696;42.704;23.304;2023-07-29T03:34:32;4.05;;;3.58;;
42006;SDS011;27696;42.704;23.304;2023-07-29T03:36:58;4.13;;;3.60;;
42006;SDS011;27696;42.704;23.304;2023-07-29T03:39:24;4.97;;;3.22;;
42006;SDS011;27696;42.704;23.304;2023-07-29T03:41:49;4.20;;;3.50;;
42006;SDS011;27696;42.704;23.304;2023-07-29T03:44:15;4.22;;;3.30;;
42006;SDS011;27696;42.704;23.304;2023-07-29T03:46:40;5.85;;;4.00;;
42006;SDS011;27696;42.704;23.304;2023-07-29T03:49:06;5.63;;;3.60;;
42006;SDS011;27696;42.704;23.304;2023-07-29T03:51:31;3.80;;;3.40;;
42006;SDS011;27696;42.704;23.304;2023-07-29T03:53:56;4.50;;;3.65;;
42006;SDS011;27696;42.704;23.304;2023-07-29T03:56:22;4.28;;;3.40;;
42006;SDS011;27696;42.704;23.304;2023-07-29T03:58:47;4.72;;;3.60;;
42006;SDS011;27696;42.704;23.304;2023-07-29T04:01:14;4.43;;;3.88;;
42006;SDS011;27696;42.704;23.304;2023-07-29T04:03:40;5.30;;;3.78;;
42006;SDS011;27696;42.704;23.304;2023-07-29T04:06:05;4.55;;;3.30;;
42006;SDS011;27696;42.704;23.304;2023-07-29T04:08:30;3.97;;;3.28;;
42006;SDS011;27696;42.704;23.304;2023-07-29T04:10:56;4.40;;;3.55;;
42006;SDS011;27696;42.704;23.304;2023-07-29T04:13:21;7.60;;;3.85;;
42006;SDS011;27696;42.704;23.304;2023-07-29T04:15:47;7.13;;;3.22;;
42006;SDS011;27696;42.704;23.304;2023-07-29T04:18:12;7.10;;;3.60;;
42006;SDS011;27696;42.704;23.304;2023-07-29T04:20:38;3.90;;;3.50;;
42006;SDS011;27696;42.704;23.304;2023-07-29T04:23:03;4.28;;;3.60;;
42006;SDS011;27696;42.704;23.304;2023-07-29T04:25:28;6.18;;;3.75;;
42006;SDS011;27696;42.704;23.304;2023-07-29T04:27:54;4.75;;;3.55;;
42006;SDS011;27696;42.704;23.304;2023-07-29T04:30:20;5.78;;;3.88;;
42006;SDS011;27696;42.704;23.304;2023-07-29T04:32:45;6.30;;;3.80;;
42006;SDS011;27696;42.704;23.304;2023-07-29T04:35:13;5.10;;;4.32;;
42006;SDS011;27696;42.704;23.304;2023-07-29T04:37:39;8.05;;;4.05;;
42006;SDS011;27696;42.704;23.304;2023-07-29T04:40:05;5.05;;;4.10;;
42006;SDS011;27696;42.704;23.304;2023-07-29T04:42:31;5.00;;;3.67;;
42006;SDS011;27696;42.704;23.304;2023-07-29T04:44:57;4.32;;;3.90;;
42006;SDS011;27696;42.704;23.304;2023-07-29T04:47:22;8.13;;;4.07;;
42006;SDS011;27696;42.704;23.304;2023-07-29T04:49:48;6.50;;;3.80;;
42006;SDS011;27696;42.704;23.304;2023-07-29T04:52:13;5.88;;;4.60;;
42006;SDS011;27696;42.704;23.304;2023-07-29T04:54:40;5.45;;;3.65;;
42006;SDS011;27696;42.704;23.304;2023-07-29T04:57:05;6.32;;;4.28;;
42006;SDS011;27696;42.704;23.304;2023-07-29T04:59:31;5.15;;;4.50;;
42006;SDS011;27696;42.704;23.304;2023-07-29T05:01:56;5.47;;;4.32;;
42006;SDS011;27696;42.704;23.304;2023-07-29T05:04:22;4.53;;;4.13;;
42006;SDS011;27696;42.704;23.304;2023-07-29T05:06:48;4.32;;;3.92;;
42006;SDS011;27696;42.704;23.304;2023-07-29T05:09:17;7.20;;;5.03;;
42006;SDS011;27696;42.704;23.304;2023-07-29T05:11:43;12.70;;;5.05;;
42006;SDS011;27696;42.704;23.304;2023-07-29T05:14:16;7.30;;;5.03;;
42006;SDS011;27696;42.704;23.304;2023-07-29T05:16:42;6.07;;;4.70;;
42006;SDS011;27696;42.704;23.304;2023-07-29T05:19:07;6.60;;;4.95;;
42006;SDS011;27696;42.704;23.304;2023-07-29T05:21:33;6.47;;;4.53;;
42006;SDS011;27696;42.704;23.304;2023-07-29T05:23:58;7.18;;;6.10;;
42006;SDS011;27696;42.704;23.304;2023-07-29T05:26:24;5.57;;;4.80;;
42006;SDS011;27696;42.704;23.304;2023-07-29T05:28:49;7.78;;;5.18;;
42006;SDS011;27696;42.704;23.304;2023-07-29T05:31:14;9.57;;;5.57;;
42006;SDS011;27696;42.704;23.304;2023-07-29T05:33:40;8.45;;;5.20;;
42006;SDS011;27696;42.704;23.304;2023-07-29T05:36:05;7.60;;;5.30;;
42006;SDS011;27696;42.704;23.304;2023-07-29T05:38:31;7.30;;;5.68;;
42006;SDS011;27696;42.704;23.304;2023-07-29T05:40:56;8.57;;;5.07;;
42006;SDS011;27696;42.704;23.304;2023-07-29T05:43:24;7.40;;;5.18;;
42006;SDS011;27696;42.704;23.304;2023-07-29T05:45:49;6.38;;;5.68;;
42006;SDS011;27696;42.704;23.304;2023-07-29T05:48:15;6.93;;;4.80;;
42006;SDS011;27696;42.704;23.304;2023-07-29T05:50:41;7.80;;;5.20;;
42006;SDS011;27696;42.704;23.304;2023-07-29T05:53:06;7.90;;;5.53;;
42006;SDS011;27696;42.704;23.304;2023-07-29T05:55:31;7.57;;;5.70;;
42006;SDS011;27696;42.704;23.304;2023-07-29T05:57:57;7.40;;;5.60;;
42006;SDS011;27696;42.704;23.304;2023-07-29T06:00:22;6.40;;;5.75;;
42006;SDS011;27696;42.704;23.304;2023-07-29T06:02:48;7.88;;;5.50;;
42006;SDS011;27696;42.704;23.304;2023-07-29T06:05:13;6.05;;;5.00;;
42006;SDS011;27696;42.704;23.304;2023-07-29T06:07:39;5.85;;;5.10;;
42006;SDS011;27696;42.704;23.304;2023-07-29T06:10:09;7.47;;;5.72;;
42006;SDS011;27696;42.704;23.304;2023-07-29T06:12:36;9.88;;;6.25;;
42006;SDS011;27696;42.704;23.304;2023-07-29T06:15:02;9.77;;;5.35;;
42006;SDS011;27696;42.704;23.304;2023-07-29T06:17:29;9.13;;;6.07;;
42006;SDS011;27696;42.704;23.304;2023-07-29T06:19:55;6.50;;;5.20;;
42006;SDS011;27696;42.704;23.304;2023-07-29T06:22:20;8.77;;;5.82;;
42006;SDS011;27696;42.704;23.304;2023-07-29T06:24:45;6.82;;;5.57;;
42006;SDS011;27696;42.704;23.304;2023-07-29T06:27:11;9.32;;;6.38;;
42006;SDS011;27696;42.704;23.304;2023-07-29T06:29:36;5.47;;;4.97;;
42006;SDS011;27696;42.704;23.304;2023-07-29T06:32:02;5.72;;;4.97;;
42006;SDS011;27696;42.704;23.304;2023-07-29T06:34:27;10.55;;;6.55;;
42006;SDS011;27696;42.704;23.304;2023-07-29T06:36:53;7.07;;;5.38;;
42006;SDS011;27696;42.704;23.304;2023-07-29T06:39:18;10.73;;;7.20;;
42006;SDS011;27696;42.704;23.304;2023-07-29T06:41:44;7.70;;;5.90;;
42006;SDS011;27696;42.704;23.304;2023-07-29T06:44:09;7.70;;;5.72;;
42006;SDS011;27696;42.704;23.304;2023-07-29T06:46:34;9.55;;;5.82;;
42006;SDS011;27696;42.704;23.304;2023-07-29T06:49:00;12.52;;;5.93;;
42006;SDS011;27696;42.704;23.304;2023-07-29T06:51:25;12.35;;;5.18;;
42006;SDS011;27696;42.704;23.304;2023-07-29T06:53:51;10.20;;;5.25;;
42006;SDS011;27696;42.704;23.304;2023-07-29T06:56:16;6.82;;;5.20;;
42006;SDS011;27696;42.704;23.304;2023-07-29T06:58:41;5.25;;;4.75;;
42006;SDS011;27696;42.704;23.304;2023-07-29T07:01:07;6.10;;;5.00;;
42006;SDS011;27696;42.704;23.304;2023-07-29T07:03:32;11.93;;;5.10;;
42006;SDS011;27696;42.704;23.304;2023-07-29T07:05:58;5.75;;;5.15;;
42006;SDS011;27696;42.704;23.304;2023-07-29T07:08:23;6.93;;;5.13;;
42006;SDS011;27696;42.704;23.304;2023-07-29T07:10:49;6.10;;;4.90;;
42006;SDS011;27696;42.704;23.304;2023-07-29T07:13:14;12.93;;;4.82;;
42006;SDS011;27696;42.704;23.304;2023-07-29T07:15:40;8.80;;;5.05;;
42006;SDS011;27696;42.704;23.304;2023-07-29T07:18:05;9.32;;;5.00;;
42006;SDS011;27696;42.704;23.304;2023-07-29T07:20:30;7.85;;;4.95;;
42006;SDS011;27696;42.704;23.304;2023-07-29T07:22:56;11.43;;;5.70;;
42006;SDS011;27696;42.704;23.304;2023-07-29T07:25:21;7.05;;;5.00;;
42006;SDS011;27696;42.704;23.304;2023-07-29T07:27:47;8.60;;;5.43;;
42006;SDS011;27696;42.704;23.304;2023-07-29T07:30:13;13.85;;;5.53;;
42006;SDS011;27696;42.704;23.304;2023-07-29T07:32:39;9.63;;;5.70;;
42006;SDS011;27696;42.704;23.304;2023-07-29T07:35:04;9.70;;;4.55;;
42006;SDS011;27696;42.704;23.304;2023-07-29T07:37:30;6.15;;;4.57;;
42006;SDS011;27696;42.704;23.304;2023-07-29T07:39:55;7.65;;;5.10;;
42006;SDS011;27696;42.704;23.304;2023-07-29T07:42:21;6.20;;;4.28;;
42006;SDS011;27696;42.704;23.304;2023-07-29T07:44:46;9.20;;;4.50;;
42006;SDS011;27696;42.704;23.304;2023-07-29T07:47:11;4.95;;;4.13;;
42006;SDS011;27696;42.704;23.304;2023-07-29T07:49:40;8.73;;;5.25;;
42006;SDS011;27696;42.704;23.304;2023-07-29T07:52:05;10.93;;;4.93;;
42006;SDS011;27696;42.704;23.304;2023-07-29T07:54:31;7.30;;;4.47;;
42006;SDS011;27696;42.704;23.304;2023-07-29T07:56:56;9.38;;;4.97;;
42006;SDS011;27696;42.704;23.304;2023-07-29T07:59:22;8.90;;;5.35;;
42006;SDS011;27696;42.704;23.304;2023-07-29T08:01:47;7.88;;;5.20;;
42006;SDS011;27696;42.704;23.304;2023-07-29T08:04:12;7.80;;;4.80;;
42006;SDS011;27696;42.704;23.304;2023-07-29T08:06:38;12.00;;;5.50;;
42006;SDS011;27696;42.704;23.304;2023-07-29T08:09:03;8.68;;;4.35;;
42006;SDS011;27696;42.704;23.304;2023-07-29T08:11:30;7.50;;;4.25;;
42006;SDS011;27696;42.704;23.304;2023-07-29T08:13:55;8.57;;;7.68;;
42006;SDS011;27696;42.704;23.304;2023-07-29T08:16:20;7.75;;;5.32;;
42006;SDS011;27696;42.704;23.304;2023-07-29T08:18:46;7.97;;;5.57;;
42006;SDS011;27696;42.704;23.304;2023-07-29T08:21:12;8.15;;;4.45;;
42006;SDS011;27696;42.704;23.304;2023-07-29T08:23:37;10.82;;;5.90;;
42006;SDS011;27696;42.704;23.304;2023-07-29T08:26:03;7.55;;;4.30;;
42006;SDS011;27696;42.704;23.304;2023-07-29T08:28:30;8.70;;;4.60;;
42006;SDS011;27696;42.704;23.304;2023-07-29T08:31:03;4.90;;;3.95;;
42006;SDS011;27696;42.704;23.304;2023-07-29T08:33:29;5.75;;;4.30;;
42006;SDS011;27696;42.704;23.304;2023-07-29T08:35:55;8.77;;;3.83;;
42006;SDS011;27696;42.704;23.304;2023-07-29T08:38:20;5.57;;;4.32;;
42006;SDS011;27696;42.704;23.304;2023-07-29T08:43:31;5.65;;;3.20;;
42006;SDS011;27696;42.704;23.304;2023-07-29T08:45:58;5.80;;;3.00;;
42006;SDS011;27696;42.704;23.304;2023-07-29T08:48:29;4.53;;;3.42;;
42006;SDS011;27696;42.704;23.304;2023-07-29T08:51:07;8.50;;;3.30;;
42006;SDS011;27696;42.704;23.304;2023-07-29T08:53:33;5.05;;;3.05;;
42006;SDS011;27696;42.704;23.304;2023-07-29T08:55:58;3.80;;;2.90;;
42006;SDS011;27696;42.704;23.304;2023-07-29T08:58:24;4.18;;;3.25;;
42006;SDS011;27696;42.704;23.304;2023-07-29T09:00:50;4.80;;;3.80;;
42006;SDS011;27696;42.704;23.304;2023-07-29T09:03:15;5.05;;;3.45;;
42006;SDS011;27696;42.704;23.304;2023-07-29T09:05:41;5.22;;;3.78;;
42006;SDS011;27696;42.704;23.304;2023-07-29T09:08:06;3.30;;;2.92;;
42006;SDS011;27696;42.704;23.304;2023-07-29T09:10:38;3.35;;;2.35;;
42006;SDS011;27696;42.704;23.304;2023-07-29T09:13:04;4.00;;;3.05;;
42006;SDS011;27696;42.704;23.304;2023-07-29T09:15:31;5.13;;;3.40;;
42006;SDS011;27696;42.704;23.304;2023-07-29T09:17:58;2.85;;;2.20;;
42006;SDS011;27696;42.704;23.304;2023-07-29T09:20:24;4.85;;;3.17;;
42006;SDS011;27696;42.704;23.304;2023-07-29T09:22:51;5.07;;;3.30;;
42006;SDS011;27696;42.704;23.304;2023-07-29T09:25:21;3.53;;;2.47;;
42006;SDS011;27696;42.704;23.304;2023-07-29T09:27:48;3.30;;;1.80;;
42006;SDS011;27696;42.704;23.304;2023-07-29T09:30:18;4.03;;;2.60;;
42006;SDS011;27696;42.704;23.304;2023-07-29T09:32:44;3.15;;;2.67;;
42006;SDS011;27696;42.704;23.304;2023-07-29T09:35:10;5.10;;;3.67;;
42006;SDS011;27696;42.704;23.304;2023-07-29T09:37:37;4.10;;;3.15;;
42006;SDS011;27696;42.704;23.304;2023-07-29T09:40:03;2.53;;;1.95;;
42006;SDS011;27696;42.704;23.304;2023-07-29T09:42:29;4.75;;;2.50;;
42006;SDS011;27696;42.704;23.304;2023-07-29T09:44:54;3.70;;;2.50;;
42006;SDS011;27696;42.704;23.304;2023-07-29T09:47:21;5.43;;;1.98;;
42006;SDS011;27696;42.704;23.304;2023-07-29T09:49:47;2.97;;;1.90;;
42006;SDS011;27696;42.704;23.304;2023-07-29T09:52:14;2.55;;;1.98;;
42006;SDS011;27696;42.704;23.304;2023-07-29T09:54:41;6.45;;;4.03;;
42006;SDS011;27696;42.704;23.304;2023-07-29T09:57:08;2.78;;;2.30;;
42006;SDS011;27696;42.704;23.304;2023-07-29T09:59:33;3.30;;;3.00;;
42006;SDS011;27696;42.704;23.304;2023-07-29T10:01:59;5.47;;;3.20;;
42006;SDS011;27696;42.704;23.304;2023-07-29T10:04:25;2.55;;;1.73;;
42006;SDS011;27696;42.704;23.304;2023-07-29T10:06:51;2.03;;;1.58;;
42006;SDS011;27696;42.704;23.304;2023-07-29T10:09:17;4.72;;;2.10;;
42006;SDS011;27696;42.704;23.304;2023-07-29T10:11:46;1.60;;;1.50;;
42006;SDS011;27696;42.704;23.304;2023-07-29T10:14:12;2.88;;;1.50;;
42006;SDS011;27696;42.704;23.304;2023-07-29T10:16:39;1.90;;;1.48;;
42006;SDS011;27696;42.704;23.304;2023-07-29T10:19:05;2.58;;;1.60;;
42006;SDS011;27696;42.704;23.304;2023-07-29T10:21:32;2.25;;;1.60;;
42006;SDS011;27696;42.704;23.304;2023-07-29T10:23:58;2.58;;;1.70;;
42006;SDS011;27696;42.704;23.304;2023-07-29T10:26:26;2.20;;;1.88;;
42006;SDS011;27696;42.704;23.304;2023-07-29T10:28:53;3.63;;;1.40;;
42006;SDS011;27696;42.704;23.304;2023-07-29T10:31:20;2.00;;;1.42;;
42006;SDS011;27696;42.704;23.304;2023-07-29T10:33:47;1.90;;;1.67;;
42006;SDS011;27696;42.704;23.304;2023-07-29T10:36:13;2.17;;;1.80;;
42006;SDS011;27696;42.704;23.304;2023-07-29T10:38:39;3.13;;;2.50;;
42006;SDS011;27696;42.704;23.304;2023-07-29T10:41:05;2.00;;;1.80;;
42006;SDS011;27696;42.704;23.304;2023-07-29T10:43:32;6.68;;;2.03;;
42006;SDS011;27696;42.704;23.304;2023-07-29T10:46:14;2.40;;;1.45;;
42006;SDS011;27696;42.704;23.304;2023-07-29T10:48:44;2.40;;;1.30;;
42006;SDS011;27696;42.704;23.304;2023-07-29T10:53:56;2.15;;;1.65;;
42006;SDS011;27696;42.704;23.304;2023-07-29T10:56:27;3.10;;;1.80;;
42006;SDS011;27696;42.704;23.304;2023-07-29T11:01:38;1.60;;;1.50;;
42006;SDS011;27696;42.704;23.304;2023-07-29T11:17:39;3.60;;;1.48;;
42006;SDS011;27696;42.704;23.304;2023-07-29T11:20:25;4.55;;;1.05;;
42006;SDS011;27696;42.704;23.304;2023-07-29T11:22:55;1.35;;;1.25;;
42006;SDS011;27696;42.704;23.304;2023-07-29T11:25:22;4.53;;;1.60;;
42006;SDS011;27696;42.704;23.304;2023-07-29T11:27:52;2.53;;;1.20;;
42006;SDS011;27696;42.704;23.304;2023-07-29T11:30:18;1.20;;;1.10;;
42006;SDS011;27696;42.704;23.304;2023-07-29T11:32:44;1.23;;;1.13;;
42006;SDS011;27696;42.704;23.304;2023-07-29T11:35:13;3.20;;;1.95;;
42006;SDS011;27696;42.704;23.304;2023-07-29T11:37:40;1.48;;;1.20;;
42006;SDS011;27696;42.704;23.304;2023-07-29T11:40:07;1.48;;;1.23;;
42006;SDS011;27696;42.704;23.304;2023-07-29T11:42:35;1.50;;;1.40;;
42006;SDS011;27696;42.704;23.304;2023-07-29T11:45:04;1.30;;;1.20;;
42006;SDS011;27696;42.704;23.304;2023-07-29T11:47:32;3.92;;;1.75;;
42006;SDS011;27696;42.704;23.304;2023-07-29T11:50:00;2.97;;;1.90;;
42006;SDS011;27696;42.704;23.304;2023-07-29T11:52:27;2.65;;;1.90;;
42006;SDS011;27696;42.704;23.304;2023-07-29T11:54:53;1.83;;;1.30;;
42006;SDS011;27696;42.704;23.304;2023-07-29T11:57:18;5.35;;;1.33;;
42006;SDS011;27696;42.704;23.304;2023-07-29T11:59:44;4.15;;;1.35;;
42006;SDS011;27696;42.704;23.304;2023-07-29T12:02:13;2.05;;;1.75;;
42006;SDS011;27696;42.704;23.304;2023-07-29T12:04:41;2.20;;;1.52;;
42006;SDS011;27696;42.704;23.304;2023-07-29T12:07:07;4.05;;;1.50;;
42006;SDS011;27696;42.704;23.304;2023-07-29T12:09:33;2.45;;;1.23;;
42006;SDS011;27696;42.704;23.304;2023-07-29T12:11:59;1.95;;;1.25;;
42006;SDS011;27696;42.704;23.304;2023-07-29T12:14:26;1.42;;;1.30;;
42006;SDS011;27696;42.704;23.304;2023-07-29T12:16:53;2.10;;;1.42;;
42006;SDS011;27696;42.704;23.304;2023-07-29T12:19:18;1.40;;;1.30;;
42006;SDS011;27696;42.704;23.304;2023-07-29T12:21:44;1.42;;;1.33;;
42006;SDS011;27696;42.704;23.304;2023-07-29T12:24:12;1.92;;;1.40;;
42006;SDS011;27696;42.704;23.304;2023-07-29T12:26:38;2.03;;;1.42;;
42006;SDS011;27696;42.704;23.304;2023-07-29T12:29:13;1.35;;;1.20;;
42006;SDS011;27696;42.704;23.304;2023-07-29T12:31:39;1.10;;;1.00;;
42006;SDS011;27696;42.704;23.304;2023-07-29T12:34:04;1.25;;;1.13;;
42006;SDS011;27696;42.704;23.304;2023-07-29T12:36:47;1.48;;;1.38;;
42006;SDS011;27696;42.704;23.304;2023-07-29T12:39:20;2.17;;;1.42;;
42006;SDS011;27696;42.704;23.304;2023-07-29T12:41:48;3.83;;;1.58;;
42006;SDS011;27696;42.704;23.304;2023-07-29T12:44:14;2.10;;;1.88;;
42006;SDS011;27696;42.704;23.304;2023-07-29T12:46:39;2.20;;;1.58;;
42006;SDS011;27696;42.704;23.304;2023-07-29T12:49:05;1.38;;;1.25;;
42006;SDS011;27696;42.704;23.304;2023-07-29T12:51:31;2.38;;;1.65;;
42006;SDS011;27696;42.704;23.304;2023-07-29T12:53:56;1.92;;;1.80;;
42006;SDS011;27696;42.704;23.304;2023-07-29T12:56:22;3.78;;;1.85;;
42006;SDS011;27696;42.704;23.304;2023-07-29T12:58:47;1.38;;;1.27;;
42006;SDS011;27696;42.704;23.304;2023-07-29T13:01:13;4.30;;;1.20;;
42006;SDS011;27696;42.704;23.304;2023-07-29T13:03:42;1.40;;;1.30;;
42006;SDS011;27696;42.704;23.304;2023-07-29T13:06:08;2.00;;;1.80;;
42006;SDS011;27696;42.704;23.304;2023-07-29T13:08:33;4.13;;;1.20;;
42006;SDS011;27696;42.704;23.304;2023-07-29T13:10:59;3.72;;;1.63;;
42006;SDS011;27696;42.704;23.304;2023-07-29T13:13:24;2.30;;;1.40;;
42006;SDS011;27696;42.704;23.304;2023-07-29T13:15:50;1.58;;;1.38;;
42006;SDS011;27696;42.704;23.304;2023-07-29T13:18:15;1.45;;;1.23;;
42006;SDS011;27696;42.704;23.304;2023-07-29T13:20:40;3.00;;;1.83;;
42006;SDS011;27696;42.704;23.304;2023-07-29T13:23:12;1.50;;;1.38;;
42006;SDS011;27696;42.704;23.304;2023-07-29T13:25:37;4.53;;;1.40;;
42006;SDS011;27696;42.704;23.304;2023-07-29T13:28:03;3.83;;;1.80;;
42006;SDS011;27696;42.704;23.304;2023-07-29T13:30:28;5.45;;;1.50;;
42006;SDS011;27696;42.704;23.304;2023-07-29T13:32:54;5.55;;;1.77;;
42006;SDS011;27696;42.704;23.304;2023-07-29T13:35:19;3.25;;;1.63;;
42006;SDS011;27696;42.704;23.304;2023-07-29T13:37:45;7.13;;;2.35;;
42006;SDS011;27696;42.704;23.304;2023-07-29T13:40:10;8.88;;;2.30;;
42006;SDS011;27696;42.704;23.304;2023-07-29T13:42:36;5.10;;;2.00;;
42006;SDS011;27696;42.704;23.304;2023-07-29T13:45:01;2.13;;;1.65;;
42006;SDS011;27696;42.704;23.304;2023-07-29T13:47:27;4.03;;;2.03;;
42006;SDS011;27696;42.704;23.304;2023-07-29T13:49:52;5.20;;;1.85;;
42006;SDS011;27696;42.704;23.304;2023-07-29T13:52:18;4.95;;;1.50;;
42006;SDS011;27696;42.704;23.304;2023-07-29T13:54:43;5.53;;;2.45;;
42006;SDS011;27696;42.704;23.304;2023-07-29T13:57:09;2.03;;;1.42;;
42006;SDS011;27696;42.704;23.304;2023-07-29T13:59:35;3.63;;;1.60;;
42006;SDS011;27696;42.704;23.304;2023-07-29T14:02:03;4.70;;;1.75;;
42006;SDS011;27696;42.704;23.304;2023-07-29T14:04:30;1.85;;;1.65;;
42006;SDS011;27696;42.704;23.304;2023-07-29T14:06:55;5.55;;;2.20;;
42006;SDS011;27696;42.704;23.304;2023-07-29T14:09:20;4.90;;;4.38;;
42006;SDS011;27696;42.704;23.304;2023-07-29T14:11:46;8.02;;;5.10;;
42006;SDS011;27696;42.704;23.304;2023-07-29T14:14:11;2.92;;;2.60;;
42006;SDS011;27696;42.704;23.304;2023-07-29T14:16:36;3.60;;;2.40;;
42006;SDS011;27696;42.704;23.304;2023-07-29T14:19:02;10.35;;;5.63;;
42006;SDS011;27696;42.704;23.304;2023-07-29T14:21:27;13.98;;;6.32;;
42006;SDS011;27696;42.704;23.304;2023-07-29T14:23:53;6.82;;;4.50;;
42006;SDS011;27696;42.704;23.304;2023-07-29T14:26:18;2.15;;;1.95;;
42006;SDS011;27696;42.704;23.304;2023-07-29T14:28:43;10.65;;;2.83;;
42006;SDS011;27696;42.704;23.304;2023-07-29T14:31:09;6.65;;;2.97;;
42006;SDS011;27696;42.704;23.304;2023-07-29T14:33:35;3.90;;;2.40;;
42006;SDS011;27696;42.704;23.304;2023-07-29T14:36:00;1.98;;;1.88;;
42006;SDS011;27696;42.704;23.304;2023-07-29T14:38:28;2.00;;;1.80;;
42006;SDS011;27696;42.704;23.304;2023-07-29T14:40:54;3.80;;;1.83;;
42006;SDS011;27696;42.704;23.304;2023-07-29T14:43:21;3.40;;;1.83;;
42006;SDS011;27696;42.704;23.304;2023-07-29T14:45:47;3.78;;;2.67;;
42006;SDS011;27696;42.704;23.304;2023-07-29T14:48:12;1.95;;;1.75;;
42006;SDS011;27696;42.704;23.304;2023-07-29T14:50:38;8.13;;;2.92;;
42006;SDS011;27696;42.704;23.304;2023-07-29T14:53:03;3.60;;;1.73;;
42006;SDS011;27696;42.704;23.304;2023-07-29T14:55:29;4.15;;;2.03;;
42006;SDS011;27696;42.704;23.304;2023-07-29T14:57:54;6.13;;;3.40;;
42006;SDS011;27696;42.704;23.304;2023-07-29T15:00:19;2.67;;;2.30;;
42006;SDS011;27696;42.704;23.304;2023-07-29T15:02:45;2.15;;;1.90;;